createdAt,value
2023-02-18T00:01:22.460Z,1.40
2023-02-18T00:04:09.793Z,1.23
2023-02-18T00:06:59.253Z,1.40
2023-02-18T00:09:46.461Z,0.98
2023-02-18T00:12:33.863Z,1.45
2023-02-18T00:15:20.976Z,1.15
2023-02-18T00:18:08.236Z,1.25
2023-02-18T00:20:55.508Z,1.40
2023-02-18T00:23:44.139Z,1.13
2023-02-18T00:26:33.615Z,1.10
2023-02-18T00:29:24.177Z,1.30
2023-02-18T00:32:13.576Z,1.40
2023-02-18T00:35:00.772Z,1.30
2023-02-18T00:37:50.240Z,1.17
2023-02-18T00:40:43.314Z,1.60
2023-02-18T00:43:31.049Z,1.10
2023-02-18T00:46:18.255Z,1.10
2023-02-18T00:49:05.981Z,1.27
2023-02-18T00:51:53.166Z,1.17
2023-02-18T00:54:40.320Z,1.35
2023-02-18T00:57:27.435Z,1.30
2023-02-18T01:00:15.000Z,1.30
2023-02-18T01:03:02.558Z,1.50
2023-02-18T01:05:52.942Z,1.35
2023-02-18T01:08:43.376Z,1.35
2023-02-18T01:11:30.578Z,1.25
2023-02-18T01:14:17.764Z,1.50
2023-02-18T01:17:04.893Z,1.83
2023-02-18T01:19:52.094Z,1.70
2023-02-18T01:22:41.696Z,1.40
2023-02-18T01:25:28.875Z,1.40
2023-02-18T01:28:16.131Z,1.80
2023-02-18T01:31:12.549Z,1.27
2023-02-18T01:33:59.858Z,1.50
2023-02-18T01:36:47.169Z,1.52
2023-02-18T01:39:34.505Z,1.80
2023-02-18T01:42:27.905Z,1.77
2023-02-18T01:45:33.631Z,1.50
2023-02-18T01:48:25.774Z,1.98
2023-02-18T01:51:32.410Z,1.85
2023-02-18T01:54:32.379Z,2.10
2023-02-18T01:57:33.101Z,1.85
2023-02-18T02:00:23.913Z,2.00
2023-02-18T02:03:11.068Z,2.25
2023-02-18T02:05:58.220Z,2.10
2023-02-18T02:08:47.809Z,1.90
2023-02-18T02:11:37.687Z,2.20
2023-02-18T02:15:02.795Z,1.92
2023-02-18T02:17:52.897Z,1.88
2023-02-18T02:21:13.728Z,2.17
2023-02-18T02:24:00.771Z,2.10
2023-02-18T02:27:11.806Z,2.20
2023-02-18T02:30:10.195Z,1.77
2023-02-18T02:33:19.980Z,1.73
2023-02-18T02:36:37.005Z,2.05
2023-02-18T02:39:39.057Z,1.90
2023-02-18T02:42:52.066Z,1.80
2023-02-18T02:45:57.544Z,2.17
2023-02-18T02:48:50.582Z,2.08
2023-02-18T02:52:08.453Z,2.10
2023-02-18T02:54:58.025Z,2.25
2023-02-18T02:57:49.428Z,2.45
2023-02-18T03:00:55.134Z,2.53
2023-02-18T03:04:13.552Z,2.08
2023-02-18T03:07:06.603Z,2.25
2023-02-18T03:10:17.050Z,2.10
2023-02-18T03:13:24.315Z,1.80
2023-02-18T03:16:29.918Z,2.05
2023-02-18T03:19:22.583Z,2.00
2023-02-18T03:22:17.101Z,2.03
2023-02-18T03:25:07.515Z,1.67
2023-02-18T03:28:02.320Z,2.08
2023-02-18T03:30:54.644Z,1.80
2023-02-18T03:33:51.304Z,2.03
2023-02-18T03:36:39.173Z,2.00
2023-02-18T03:39:30.967Z,2.10
2023-02-18T03:42:19.420Z,2.30
2023-02-18T03:45:07.056Z,1.70
2023-02-18T03:47:58.871Z,1.75
2023-02-18T03:50:45.996Z,2.37
2023-02-18T03:53:33.314Z,2.15
2023-02-18T03:56:20.963Z,2.03
2023-02-18T03:59:08.216Z,1.98
2023-02-18T04:01:55.430Z,2.20
2023-02-18T04:04:45.789Z,2.00
2023-02-18T04:07:35.909Z,2.25
2023-02-18T04:10:23.064Z,2.67
2023-02-18T04:13:10.372Z,2.20
2023-02-18T04:15:57.765Z,2.15
2023-02-18T04:18:44.896Z,2.00
2023-02-18T04:21:32.411Z,2.58
2023-02-18T04:24:21.073Z,2.30
2023-02-18T04:27:08.236Z,2.47
2023-02-18T04:29:57.863Z,2.33
2023-02-18T04:32:47.554Z,2.28
2023-02-18T04:35:41.907Z,2.47
2023-02-18T04:38:29.305Z,2.55
2023-02-18T04:41:16.428Z,2.60
2023-02-18T04:44:03.876Z,2.35
2023-02-18T04:46:53.279Z,2.33
2023-02-18T04:49:40.450Z,2.10
2023-02-18T04:52:27.689Z,2.35
2023-02-18T04:55:14.897Z,2.13
2023-02-18T04:58:02.056Z,2.80
2023-02-18T05:01:40.283Z,2.22
2023-02-18T05:04:28.767Z,2.38
2023-02-18T05:07:16.002Z,2.45
2023-02-18T05:10:04.113Z,2.40
2023-02-18T05:12:51.275Z,2.10
2023-02-18T05:15:38.380Z,2.17
2023-02-18T05:18:28.258Z,2.00
2023-02-18T05:21:17.887Z,2.10
2023-02-18T05:24:05.388Z,2.08
2023-02-18T05:26:52.624Z,1.98
2023-02-18T05:29:39.716Z,1.75
2023-02-18T05:32:29.352Z,2.08
2023-02-18T05:35:16.640Z,2.08
2023-02-18T05:38:03.865Z,2.20
2023-02-18T05:40:51.026Z,1.85
2023-02-18T05:43:56.548Z,1.92
2023-02-18T05:46:43.835Z,2.00
2023-02-18T05:49:35.546Z,2.50
2023-02-18T05:52:22.761Z,2.10
2023-02-18T05:55:09.885Z,2.22
2023-02-18T05:57:57.213Z,2.30
2023-02-18T06:00:44.377Z,1.85
2023-02-18T06:03:52.970Z,2.40
2023-02-18T06:06:40.348Z,2.08
2023-02-18T06:09:27.579Z,2.15
2023-02-18T06:12:14.719Z,2.00
2023-02-18T06:15:01.888Z,2.13
2023-02-18T06:17:49.040Z,2.28
2023-02-18T06:20:36.292Z,2.20
2023-02-18T06:23:25.254Z,2.30
2023-02-18T06:26:13.649Z,2.40
2023-02-18T07:08:12.729Z,2.03
2023-02-18T07:19:16.623Z,2.22
2023-02-18T07:22:06.944Z,2.97
2023-02-18T07:24:55.251Z,2.95
2023-02-18T07:31:53.196Z,2.70
2023-02-18T07:39:12.545Z,2.88
2023-02-18T07:42:08.753Z,2.47
2023-02-18T07:44:55.961Z,2.47
2023-02-18T07:51:50.460Z,2.33
2023-02-18T07:54:37.655Z,2.50
2023-02-18T07:57:30.352Z,2.47
2023-02-18T08:03:04.779Z,2.38
2023-02-18T08:05:54.969Z,2.33
2023-02-18T08:08:42.173Z,2.22
2023-02-18T08:11:29.299Z,2.65
2023-02-18T08:14:16.727Z,2.50
2023-02-18T08:17:03.893Z,2.47
2023-02-18T08:19:51.222Z,2.00
2023-02-18T08:22:38.569Z,1.98
2023-02-18T08:25:29.671Z,1.98
2023-02-18T08:28:29.306Z,2.13
2023-02-18T08:31:21.234Z,2.40
2023-02-18T08:34:09.529Z,2.72
2023-02-18T08:36:56.789Z,1.92
2023-02-18T08:39:46.568Z,1.77
2023-02-18T08:42:33.744Z,1.38
2023-02-18T08:45:23.354Z,1.92
2023-02-18T08:48:18.158Z,1.67
2023-02-18T08:51:22.759Z,1.65
2023-02-18T08:54:09.958Z,1.67
2023-02-18T08:57:00.282Z,1.35
2023-02-18T08:59:47.669Z,1.70
2023-02-18T09:02:34.895Z,1.58
2023-02-18T09:05:22.116Z,1.50
2023-02-18T09:08:09.690Z,1.75
2023-02-18T09:10:59.788Z,2.20
2023-02-18T09:13:49.572Z,1.80
2023-02-18T09:16:38.450Z,2.03
2023-02-18T09:19:28.173Z,1.67
2023-02-18T09:22:18.228Z,1.60
2023-02-18T09:25:07.474Z,1.60
2023-02-18T09:27:54.699Z,1.40
2023-02-18T09:30:42.021Z,1.40
2023-02-18T09:33:31.725Z,1.60
2023-02-18T09:36:20.643Z,1.40
2023-02-18T09:39:07.892Z,1.60
2023-02-18T09:41:58.827Z,1.50
2023-02-18T09:45:01.434Z,1.33
2023-02-18T09:47:50.354Z,1.50
2023-02-18T09:50:37.688Z,1.40
2023-02-18T09:53:26.019Z,1.45
2023-02-18T09:56:30.074Z,1.35
2023-02-18T09:59:23.533Z,1.40
2023-02-18T10:02:18.562Z,1.45
2023-02-18T10:05:05.863Z,1.48
2023-02-18T10:07:58.968Z,1.25
2023-02-18T10:10:47.394Z,1.23
2023-02-18T10:13:34.990Z,1.35
2023-02-18T10:16:26.781Z,1.50
2023-02-18T10:19:19.894Z,1.63
2023-02-18T10:22:14.001Z,1.40
2023-02-18T10:25:06.278Z,1.83
2023-02-18T10:27:54.372Z,1.30
2023-02-18T10:30:55.983Z,1.65
2023-02-18T10:33:53.668Z,1.52
2023-02-18T10:36:50.042Z,2.38
2023-02-18T10:40:08.618Z,1.73
2023-02-18T10:43:33.297Z,1.90
2023-02-18T10:46:36.682Z,1.58
2023-02-18T10:49:56.918Z,1.80
2023-02-18T10:52:51.436Z,1.85
2023-02-18T10:55:44.822Z,2.00
2023-02-18T10:58:32.090Z,1.50
2023-02-18T11:01:26.519Z,1.50
2023-02-18T11:04:20.510Z,1.55
2023-02-18T11:07:23.533Z,1.52
2023-02-18T11:10:19.066Z,1.38
2023-02-18T11:13:09.353Z,1.23
2023-02-18T11:16:06.742Z,1.70
2023-02-18T11:18:54.035Z,1.50
2023-02-18T11:21:41.992Z,1.20
2023-02-18T11:24:32.647Z,1.15
2023-02-18T11:27:45.040Z,1.63
2023-02-18T11:30:38.981Z,1.67
2023-02-18T11:33:45.992Z,1.50
2023-02-18T11:36:38.652Z,1.13
2023-02-18T11:42:19.959Z,1.00
2023-02-18T11:45:29.135Z,0.90
2023-02-18T11:48:19.517Z,0.90
2023-02-18T11:51:07.579Z,1.00
2023-02-18T11:54:17.214Z,1.10
2023-02-18T11:57:07.103Z,1.20
2023-02-18T11:59:55.376Z,1.20
2023-02-18T12:02:42.929Z,1.25
2023-02-18T12:05:32.321Z,1.00
2023-02-18T12:08:24.291Z,1.40
2023-02-18T12:11:22.707Z,1.17
2023-02-18T12:14:24.717Z,1.48
2023-02-18T12:17:40.323Z,1.38
2023-02-18T12:20:55.171Z,1.20
2023-02-18T12:24:11.176Z,1.58
2023-02-18T12:27:31.199Z,1.35
2023-02-18T12:30:27.241Z,1.50
2023-02-18T12:39:13.771Z,1.63
2023-02-18T12:42:32.451Z,1.67
2023-02-18T12:45:45.092Z,1.50
2023-02-18T12:48:52.159Z,1.75
2023-02-18T12:51:47.359Z,1.77
2023-02-18T12:54:57.923Z,1.63
2023-02-18T12:57:52.499Z,1.73
2023-02-18T13:00:45.448Z,1.80
2023-02-18T13:03:47.607Z,1.77
2023-02-18T13:06:52.363Z,1.77
2023-02-18T13:09:48.425Z,1.52
2023-02-18T13:12:47.965Z,1.80
2023-02-18T13:15:48.031Z,2.03
2023-02-18T13:18:40.704Z,1.90
2023-02-18T13:24:35.291Z,1.92
2023-02-18T13:28:01.292Z,2.15
2023-02-18T13:31:27.501Z,2.15
2023-02-18T13:34:31.141Z,1.90
2023-02-18T13:37:18.286Z,2.20
2023-02-18T13:40:23.743Z,4.38
2023-02-18T13:43:21.475Z,1.90
2023-02-18T13:46:14.650Z,2.03
2023-02-18T13:49:01.800Z,1.50
2023-02-18T13:51:52.096Z,1.90
2023-02-18T13:55:00.536Z,2.20
2023-02-18T13:57:49.844Z,1.77
2023-02-18T14:00:55.634Z,1.70
2023-02-18T14:03:42.931Z,2.33
2023-02-18T14:06:33.577Z,2.08
2023-02-18T14:09:26.484Z,2.00
2023-02-18T14:12:37.759Z,2.00
2023-02-18T14:15:25.303Z,2.15
2023-02-18T14:18:16.112Z,2.00
2023-02-18T14:21:12.457Z,1.98
2023-02-18T14:24:02.105Z,1.90
2023-02-18T14:27:06.905Z,1.90
2023-02-18T14:30:04.968Z,2.10
2023-02-18T14:32:59.514Z,2.05
2023-02-18T14:36:19.192Z,1.83
2023-02-18T14:39:09.681Z,1.80
2023-02-18T14:42:08.764Z,2.08
2023-02-18T14:45:32.241Z,1.90
2023-02-18T14:48:35.099Z,2.15
2023-02-18T14:54:41.686Z,2.17
2023-02-18T14:57:37.347Z,2.00
2023-02-18T15:00:35.506Z,1.70
2023-02-18T15:03:22.792Z,2.00
2023-02-18T15:06:24.387Z,1.70
2023-02-18T15:09:21.479Z,1.77
2023-02-18T15:12:14.299Z,1.52
2023-02-18T15:15:05.486Z,1.60
2023-02-18T15:17:53.022Z,1.88
2023-02-18T15:20:53.954Z,2.00
2023-02-18T15:23:41.561Z,1.70
2023-02-18T15:26:28.821Z,1.60
2023-02-18T15:29:34.681Z,1.83
2023-02-18T15:32:27.375Z,1.67
2023-02-18T15:35:18.090Z,2.03
2023-02-18T15:38:15.716Z,2.03
2023-02-18T15:41:03.997Z,1.67
2023-02-18T15:44:04.546Z,1.80
2023-02-18T15:46:52.247Z,1.52
2023-02-18T15:49:45.817Z,1.95
2023-02-18T15:52:38.355Z,2.08
2023-02-18T15:55:35.620Z,1.80
2023-02-18T15:58:31.095Z,2.03
2023-02-18T16:01:29.368Z,12.30
2023-02-18T16:04:17.146Z,3.88
2023-02-18T16:07:35.007Z,1.75
2023-02-18T16:10:36.189Z,2.38
2023-02-18T16:13:29.386Z,4.55
2023-02-18T16:16:40.720Z,1.73
2023-02-18T16:19:31.947Z,2.10
2023-02-18T16:22:31.147Z,1.88
2023-02-18T16:25:35.182Z,2.00
2023-02-18T16:28:31.557Z,1.98
2023-02-18T16:31:21.559Z,1.88
2023-02-18T16:34:09.076Z,2.00
2023-02-18T16:37:14.962Z,2.53
2023-02-18T16:40:05.626Z,2.45
2023-02-18T16:42:58.130Z,2.10
2023-02-18T16:45:54.380Z,1.88
2023-02-18T16:49:04.473Z,2.30
2023-02-18T16:52:19.969Z,2.30
2023-02-18T16:55:23.278Z,2.45
2023-02-18T16:58:12.853Z,2.00
2023-02-18T17:01:01.964Z,2.53
2023-02-18T17:03:49.917Z,2.03
2023-02-18T17:06:39.444Z,2.40
2023-02-18T17:09:28.193Z,1.90
2023-02-18T17:12:15.467Z,1.90
2023-02-18T17:15:02.658Z,1.95
2023-02-18T17:17:52.166Z,2.33
2023-02-18T17:20:40.116Z,2.88
2023-02-18T17:23:29.483Z,1.85
2023-02-18T17:26:26.428Z,1.95
2023-02-18T17:29:14.009Z,2.20
2023-02-18T17:32:01.235Z,2.28
2023-02-18T17:34:48.846Z,2.25
2023-02-18T17:37:35.957Z,2.63
2023-02-18T17:40:33.120Z,2.92
2023-02-18T17:43:20.338Z,2.60
2023-02-18T17:46:14.826Z,2.58
2023-02-18T17:52:05.807Z,2.50
2023-02-18T17:55:20.371Z,2.25
2023-02-18T17:58:07.539Z,2.72
2023-02-18T18:00:57.325Z,2.25
2023-02-18T18:03:44.797Z,2.88
2023-02-18T18:06:36.113Z,2.42
2023-02-18T18:09:28.445Z,2.70
2023-02-18T18:12:21.759Z,2.60
2023-02-18T18:15:30.383Z,2.78
2023-02-18T18:18:19.836Z,2.80
2023-02-18T18:21:16.156Z,4.75
2023-02-18T18:24:04.058Z,4.13
2023-02-18T18:26:51.195Z,2.97
2023-02-18T18:29:59.586Z,2.80
2023-02-18T18:32:53.915Z,2.60
2023-02-18T18:35:41.102Z,2.30
2023-02-18T18:38:31.109Z,2.90
2023-02-18T18:41:22.732Z,3.10
2023-02-18T18:44:11.292Z,2.60
2023-02-18T18:46:58.689Z,3.00
2023-02-18T18:49:51.774Z,2.78
2023-02-18T18:52:40.400Z,2.95
2023-02-18T18:55:38.172Z,2.95
2023-02-18T18:58:29.410Z,2.60
2023-02-18T19:01:19.667Z,2.65
2023-02-18T19:04:07.072Z,3.08
2023-02-18T19:06:59.353Z,3.30
2023-02-18T19:09:49.061Z,3.00
2023-02-18T19:12:49.479Z,3.40
2023-02-18T19:15:36.824Z,3.30
2023-02-18T19:18:32.608Z,3.70
2023-02-18T19:21:22.293Z,3.55
2023-02-18T19:24:09.981Z,3.22
2023-02-18T19:26:57.526Z,3.13
2023-02-18T19:33:09.594Z,3.05
2023-02-18T19:35:57.091Z,3.35
2023-02-18T19:38:45.984Z,3.42
2023-02-18T19:41:35.834Z,3.30
2023-02-18T19:44:23.372Z,3.33
2023-02-18T19:47:10.645Z,4.25
2023-02-18T19:50:02.168Z,4.70
2023-02-18T19:52:55.256Z,3.92
2023-02-18T19:55:42.665Z,3.60
2023-02-18T19:58:30.336Z,3.35
2023-02-18T20:01:18.685Z,3.42
2023-02-18T20:04:06.219Z,3.08
2023-02-18T20:06:53.545Z,3.30
2023-02-18T20:09:40.882Z,2.95
2023-02-18T20:12:31.216Z,2.95
2023-02-18T20:15:21.169Z,3.50
2023-02-18T20:18:08.562Z,3.20
2023-02-18T20:20:55.871Z,3.00
2023-02-18T20:23:45.238Z,3.47
2023-02-18T20:26:35.083Z,5.88
2023-02-18T20:29:22.585Z,7.10
2023-02-18T20:32:10.374Z,5.38
2023-02-18T20:34:58.718Z,3.42
2023-02-18T20:37:46.298Z,3.33
2023-02-18T20:40:38.340Z,3.15
2023-02-18T20:43:30.044Z,2.95
2023-02-18T20:46:23.207Z,2.90
2023-02-18T20:49:15.205Z,3.65
2023-02-18T20:52:02.636Z,3.90
2023-02-18T20:54:50.135Z,3.60
2023-02-18T20:57:37.575Z,3.22
2023-02-18T21:00:25.090Z,3.58
2023-02-18T21:03:14.966Z,3.33
2023-02-18T21:06:10.910Z,3.28
2023-02-18T21:09:00.424Z,4.50
2023-02-18T21:11:55.384Z,4.00
2023-02-18T21:14:42.714Z,3.65
2023-02-18T21:17:34.667Z,3.58
2023-02-18T21:20:24.538Z,3.53
2023-02-18T21:23:14.825Z,3.53
2023-02-18T21:26:12.711Z,3.42
2023-02-18T21:29:05.369Z,3.53
2023-02-18T21:34:41.699Z,4.10
2023-02-18T21:37:29.147Z,3.45
2023-02-18T21:40:16.967Z,4.00
2023-02-18T21:43:07.272Z,3.38
2023-02-18T22:11:25.693Z,4.20
2023-02-18T22:14:59.836Z,3.90
2023-02-18T22:17:49.410Z,3.22
2023-02-18T22:20:46.169Z,3.10
2023-02-18T22:23:33.575Z,3.65
2023-02-18T22:26:21.053Z,3.33
2023-02-18T22:29:27.179Z,3.33
2023-02-18T22:32:14.741Z,3.45
2023-02-18T22:35:02.123Z,3.08
2023-02-18T22:37:49.369Z,3.72
2023-02-18T22:40:37.717Z,3.28
2023-02-18T22:43:24.997Z,3.40
2023-02-18T22:46:17.933Z,3.40
2023-02-18T22:49:06.539Z,3.65
2023-02-18T22:51:54.988Z,3.08
2023-02-18T22:54:47.666Z,3.47
2023-02-18T23:00:27.308Z,3.72
2023-02-18T23:03:16.670Z,3.53
2023-02-18T23:06:08.156Z,3.40
2023-02-18T23:08:56.486Z,3.72
2023-02-18T23:11:43.987Z,3.30
2023-02-18T23:14:41.305Z,3.97
2023-02-18T23:17:28.525Z,3.63
2023-02-18T23:20:38.794Z,3.47
2023-02-18T23:23:27.055Z,3.47
2023-02-18T23:26:18.424Z,3.58
2023-02-18T23:29:06.729Z,3.30
2023-02-18T23:31:54.119Z,3.65
2023-02-18T23:34:45.564Z,3.95
2023-02-18T23:37:51.638Z,4.13
2023-02-18T23:40:47.419Z,3.92
2023-02-18T23:43:36.005Z,3.80
2023-02-18T23:46:28.138Z,3.53
2023-02-18T23:49:30.923Z,3.25
2023-02-18T23:52:18.271Z,3.45
2023-02-18T23:55:05.810Z,3.30
2023-02-18T23:57:52.988Z,3.30
